Time;durP1;ratioP1;P1;durP2;ratioP2;P2;SDS_P1;SDS_P2;PMS_P1;PMS_P2;Temp;Humidity;BMP_temperature;BMP_pressure;BME280_temperature;BME280_humidity;BME280_pressure;Samples;Min_cycle;Max_cycle;Signal;HPM_P1;HPM_P2
2022/10/11 00:00:47;;;;;;;;;;;12.40;78.80;;;-151.14;100.00;62537.16;5051917;28;19928;-82
2022/10/11 00:03:15;;;;;;;;;;;12.40;78.80;;;18.08;100.00;62537.16;5034735;28;19921;-82
2022/10/11 00:05:44;;;;;;;;;;;12.40;78.80;;;-151.14;100.00;62537.16;5052783;28;19928;-82
2022/10/11 00:08:12;;;;;;;;;;;12.40;78.90;;;-151.14;100.00;62537.16;5035102;28;19927;-82
2022/10/11 00:10:41;;;;;;;;;;;12.40;78.90;;;-151.14;100.00;62537.16;5051794;28;19921;-82
2022/10/11 00:13:09;;;;;;;;;;;12.40;78.60;;;-151.14;100.00;62537.16;5051511;28;19935;-82
2022/10/11 00:15:39;;;;;;;;;;;12.40;78.90;;;-151.14;100.00;62537.16;5052456;28;19927;-82
2022/10/11 00:18:07;;;;;;;;;;;12.40;79.10;;;-151.14;100.00;62537.16;5051600;28;19927;-82
2022/10/11 00:20:35;;;;;;;;;;;12.30;79.10;;;-151.14;100.00;62537.16;5051501;28;19929;-82
2022/10/11 00:23:04;;;;;;;;;;;12.30;78.90;;;-151.14;100.00;62537.16;5051535;28;19920;-82
2022/10/11 00:25:45;;;;;;;;;;;12.30;78.80;;;-151.14;100.00;62537.16;4376332;32;19904;-83
2022/10/11 00:28:26;;;;;;;;;;;12.30;78.80;;;11.37;100.00;62537.16;4346606;32;19908;-83
2022/10/11 00:31:09;;;;;;;;;;;12.30;78.80;;;-151.14;100.00;62537.16;4376238;32;19901;-83
2022/10/11 00:33:49;;;;;;;;;;;12.30;78.80;;;-151.14;100.00;62537.16;4346050;32;19909;-83
2022/10/11 00:36:31;;;;;;;;;;;12.30;78.70;;;-151.14;100.00;62537.16;4376395;32;19901;-83
2022/10/11 00:39:12;;;;;;;;;;;12.30;78.80;;;-151.14;100.00;62537.16;4376167;32;19946;-84
2022/10/11 00:41:54;;;;;;;;;;;12.30;78.70;;;-151.14;100.00;62537.16;4376407;32;20223;-83
2022/10/11 00:44:35;;;;;;;;;;;12.30;78.80;;;-151.14;100.00;62537.16;4375722;32;19904;-83
2022/10/11 00:47:17;;;;;;;;;;;12.30;78.90;;;-151.14;100.00;62537.16;4346626;32;20121;-83
2022/10/11 00:49:59;;;;;;;;;;;12.30;78.60;;;-151.14;100.00;62537.16;4376227;32;20197;-83
2022/10/11 00:52:42;;;;;;;;;;;12.30;78.80;;;-151.14;100.00;62537.16;4376280;32;19901;-83
2022/10/11 00:55:22;;;;;;;;;;;12.30;78.80;;;-151.14;100.00;62537.16;4375847;32;19908;-83
2022/10/11 00:58:03;;;;;;;;;;;12.30;78.80;;;-151.14;100.00;62537.16;4376253;32;19905;-83
2022/10/11 01:00:45;;;;;;;;;;;12.30;78.80;;;-151.14;100.00;62537.16;4376198;32;19901;-83
2022/10/11 01:03:27;;;;;;;;;;;12.30;78.60;;;-151.14;100.00;62537.16;4375769;32;19908;-83
2022/10/11 01:06:09;;;;;;;;;;;12.30;78.70;;;-151.14;100.00;62537.16;4376276;32;20116;-83
2022/10/11 01:08:50;;;;;;;;;;;12.30;78.50;;;-151.14;100.00;62537.16;4376255;32;20196;-83
2022/10/11 01:11:35;;;;;;;;;;;12.30;78.40;;;-151.14;100.00;62537.16;4376326;32;19913;-83
2022/10/11 01:14:43;;;;;;;;;;;12.30;78.30;;;-151.14;100.00;62537.16;4375770;32;19901;-83
2022/10/11 01:17:32;;;;;;;;;;;12.30;78.40;;;-151.14;100.00;62537.16;4376228;32;19942;-84
2022/10/11 01:20:44;;;;;;;;;;;12.30;78.80;;;11.30;100.00;62537.16;4376317;32;19901;-81
2022/10/11 01:24:07;;;;;;;;;;;12.30;78.80;;;-151.14;100.00;62537.16;4375888;32;19901;-83
2022/10/11 01:27:26;;;;;;;;;;;12.30;78.60;;;-151.14;100.00;62537.16;4346514;32;19901;-83
2022/10/11 01:30:24;;;;;;;;;;;12.30;78.70;;;-151.14;100.00;62537.16;4376219;32;19901;-83
2022/10/11 01:33:17;;;;;;;;;;;12.30;78.60;;;-151.14;100.00;62537.16;4376332;32;19901;-83
2022/10/11 01:36:03;;;;;;;;;;;12.30;78.60;;;-151.14;100.00;62537.16;4346654;32;19901;-83
2022/10/11 01:38:47;;;;;;;;;;;12.30;78.50;;;-151.14;100.00;62537.16;4376285;32;19900;-83
2022/10/11 01:41:35;;;;;;;;;;;12.30;78.40;;;-151.14;100.00;62537.16;4376307;32;20227;-83
2022/10/11 01:44:16;;;;;;;;;;;12.30;78.50;;;-151.14;100.00;62537.16;4375831;32;19908;-83
2022/10/11 01:47:00;;;;;;;;;;;12.30;78.60;;;-151.14;100.00;62537.16;4346585;32;19908;-83
2022/10/11 01:49:41;;;;;;;;;;;12.30;78.30;;;-151.14;100.00;62537.16;4376270;32;19916;-83
2022/10/11 01:52:22;;;;;;;;;;;12.20;78.40;;;-151.14;100.00;62537.16;4376356;32;19901;-83
2022/10/11 01:55:23;;;;;;;;;;;12.20;78.10;;;-151.14;100.00;62537.16;4346119;32;20201;-83
2022/10/11 01:58:12;;;;;;;;;;;12.30;78.30;;;-151.14;100.00;62537.16;4376344;32;19901;-83
2022/10/11 02:01:02;;;;;;;;;;;12.30;78.40;;;-151.14;100.00;62537.16;4376216;32;19900;-83
2022/10/11 02:03:45;;;;;;;;;;;12.20;78.30;;;-151.14;100.00;62537.16;4375725;32;20197;-83
2022/10/11 02:06:32;;;;;;;;;;;12.20;78.30;;;-151.14;100.00;62537.16;4376433;32;19901;-82
2022/10/11 02:09:17;;;;;;;;;;;12.20;78.40;;;-151.14;100.00;62537.16;4376347;32;19908;-83
2022/10/11 02:12:02;;;;;;;;;;;12.20;78.30;;;-151.14;100.00;62537.16;4346564;32;19901;-83
2022/10/11 02:14:45;;;;;;;;;;;12.20;78.30;;;28.66;100.00;62537.16;4346131;32;19908;-83
2022/10/11 02:17:30;;;;;;;;;;;12.20;78.10;;;-151.14;100.00;62537.16;4346673;32;20197;-83
2022/10/11 02:20:14;;;;;;;;;;;12.20;78.40;;;-151.14;100.00;62537.16;4376226;32;19908;-83
2022/10/11 02:22:58;;;;;;;;;;;12.20;78.40;;;-151.14;100.00;62537.16;4376451;32;19901;-83
2022/10/11 02:25:40;;;;;;;;;;;12.20;78.30;;;-151.14;100.00;62537.16;4316921;32;19902;-83
2022/10/11 02:28:23;;;;;;;;;;;12.20;78.30;;;-151.14;100.00;62537.16;4376152;32;19900;-83
2022/10/11 02:31:05;;;;;;;;;;;12.20;78.40;;;-151.14;100.00;62537.16;4376218;32;20193;-83
2022/10/11 02:33:52;;;;;;;;;;;12.20;78.30;;;-151.14;100.00;62537.16;4345978;32;20228;-83
2022/10/11 02:36:37;;;;;;;;;;;12.20;78.20;;;-151.14;100.00;62537.16;4345637;32;19901;-83
2022/10/11 02:39:22;;;;;;;;;;;12.20;78.30;;;-151.14;100.00;62537.16;4317096;32;19909;-84
2022/10/11 02:42:06;;;;;;;;;;;12.20;78.70;;;-151.14;100.00;62537.16;4376391;32;19907;-84
2022/10/11 02:44:58;;;;;;;;;;;12.20;78.30;;;-151.14;100.00;62537.16;4375803;32;20112;-84
2022/10/11 02:47:39;;;;;;;;;;;12.20;78.90;;;-151.14;100.00;62537.16;4376323;32;19901;-84
2022/10/11 02:50:22;;;;;;;;;;;12.20;78.90;;;-151.14;100.00;62537.16;4376345;32;19905;-84
2022/10/11 02:53:03;;;;;;;;;;;12.20;78.70;;;-151.14;100.00;62537.16;4376246;32;19901;-84
2022/10/11 02:55:44;;;;;;;;;;;12.20;78.80;;;-151.14;100.00;62537.16;4346462;32;19901;-84
2022/10/11 02:58:25;;;;;;;;;;;12.20;78.50;;;-151.14;100.00;62537.16;4346502;32;19901;-84
2022/10/11 03:01:09;;;;;;;;;;;12.20;78.60;;;-151.14;100.00;62537.16;4376261;32;19945;-82
2022/10/11 03:03:50;;;;;;;;;;;12.20;78.80;;;-151.14;100.00;62537.16;4346111;32;19909;-84
2022/10/11 03:06:33;;;;;;;;;;;12.20;78.60;;;-151.14;100.00;62537.16;4376218;32;19908;-84
2022/10/11 03:09:14;;;;;;;;;;;12.20;78.60;;;-151.14;100.00;62537.16;4346637;32;19901;-84
2022/10/11 03:11:55;;;;;;;;;;;12.20;78.70;;;-151.14;100.00;62537.16;4376357;32;19923;-84
2022/10/11 03:14:37;;;;;;;;;;;12.20;78.50;;;-151.14;100.00;62537.16;4345980;32;19902;-84
2022/10/11 03:17:18;;;;;;;;;;;12.20;78.60;;;-151.14;100.00;62537.16;4346643;32;19901;-84
2022/10/11 03:19:59;;;;;;;;;;;12.20;78.60;;;-151.14;100.00;62537.16;4376221;32;19942;-84
2022/10/11 03:22:41;;;;;;;;;;;12.20;78.40;;;-151.14;100.00;62537.16;4346577;32;20113;-84
2022/10/11 03:25:22;;;;;;;;;;;12.20;78.80;;;-151.14;100.00;62537.16;4375845;32;20205;-84
2022/10/11 03:28:04;;;;;;;;;;;12.20;78.60;;;-151.14;100.00;62537.16;4376278;32;19901;-83
2022/10/11 03:30:47;;;;;;;;;;;12.10;78.60;;;-151.14;100.00;62537.16;4346423;32;19902;-83
2022/10/11 03:33:28;;;;;;;;;;;12.10;78.70;;;-151.14;100.00;62537.16;4375858;32;20227;-84
2022/10/11 03:36:10;;;;;;;;;;;12.10;78.70;;;-151.14;100.00;62537.16;4376415;32;19908;-83
2022/10/11 03:38:51;;;;;;;;;;;12.10;78.80;;;-151.14;100.00;62537.16;4346480;32;20224;-83
2022/10/11 03:41:32;;;;;;;;;;;12.20;79.10;;;-151.14;100.00;62537.16;4346505;32;19908;-84
2022/10/11 03:44:14;;;;;;;;;;;12.10;78.90;;;-151.14;100.00;62537.16;4345903;32;19901;-84
2022/10/11 03:46:55;;;;;;;;;;;12.20;78.70;;;-151.14;100.00;62537.16;4376129;32;20116;-84
2022/10/11 03:49:37;;;;;;;;;;;12.10;78.80;;;-151.14;100.00;62537.16;4346352;32;19901;-84
2022/10/11 03:52:18;;;;;;;;;;;12.10;79.10;;;-151.14;100.00;62537.16;4376123;32;20116;-84
2022/10/11 03:54:59;;;;;;;;;;;12.10;79.00;;;-151.14;100.00;62537.16;4345991;32;19901;-83
2022/10/11 03:57:41;;;;;;;;;;;12.10;78.90;;;-151.14;100.00;62537.16;4376209;32;19900;-84
2022/10/11 04:00:22;;;;;;;;;;;12.10;79.10;;;-151.14;100.00;62537.16;4376159;32;19901;-84
2022/10/11 04:03:04;;;;;;;;;;;12.10;78.90;;;-151.14;100.00;62537.16;4376066;32;19908;-84
2022/10/11 04:05:47;;;;;;;;;;;12.10;78.90;;;-151.14;100.00;62537.16;4376095;32;19923;-84
2022/10/11 04:08:46;;;;;;;;;;;12.10;79.10;;;-151.14;100.00;62537.16;4317085;32;19917;-84
2022/10/11 04:11:27;;;;;;;;;;;12.10;79.30;;;-151.14;100.00;62537.16;4376306;32;19908;-84
2022/10/11 04:14:08;;;;;;;;;;;12.10;79.10;;;-151.14;100.00;62537.16;4346138;32;19901;-84
2022/10/11 04:16:50;;;;;;;;;;;12.10;79.00;;;-151.14;100.00;62537.16;4376375;32;20205;-84
2022/10/11 04:19:32;;;;;;;;;;;12.10;79.10;;;-151.14;100.00;62537.16;4376240;32;19901;-84
2022/10/11 04:22:13;;;;;;;;;;;12.10;79.20;;;-151.14;100.00;62537.16;4346550;32;19901;-84
2022/10/11 04:24:54;;;;;;;;;;;12.10;79.20;;;-151.14;100.00;62537.16;4346155;32;19901;-83
2022/10/11 04:27:35;;;;;;;;;;;12.10;79.10;;;-151.14;100.00;62537.16;4376233;32;19908;-83
2022/10/11 04:30:17;;;;;;;;;;;12.10;79.10;;;-151.14;100.00;62537.16;4346412;32;19909;-84
2022/10/11 04:32:58;;;;;;;;;;;12.10;79.40;;;-151.14;100.00;62537.16;4346851;32;19901;-84
2022/10/11 04:35:40;;;;;;;;;;;12.10;79.20;;;-151.14;100.00;62537.16;4375987;32;19908;-83
2022/10/11 04:38:21;;;;;;;;;;;12.10;79.40;;;-151.14;100.00;62537.16;4376321;32;20113;-83
2022/10/11 04:41:08;;;;;;;;;;;12.10;79.20;;;-151.14;100.00;62537.16;4376293;32;19924;-83
2022/10/11 04:43:49;;;;;;;;;;;12.10;80.20;;;-151.14;100.00;62537.16;4375916;32;19901;-83
2022/10/11 04:46:30;;;;;;;;;;;12.10;79.40;;;-151.14;100.00;62537.16;4376326;32;19962;-83
2022/10/11 04:49:11;;;;;;;;;;;12.10;79.20;;;-151.14;100.00;62537.16;4346553;32;20116;-82
2022/10/11 04:51:53;;;;;;;;;;;12.20;79.00;;;-151.14;100.00;62537.16;4346500;32;19901;-83
2022/10/11 04:54:36;;;;;;;;;;;12.20;79.00;;;-151.14;100.00;62537.16;4375963;32;19901;-83
2022/10/11 04:57:17;;;;;;;;;;;12.30;78.80;;;-151.14;100.00;62537.16;4376358;32;19900;-84
2022/10/11 05:00:00;;;;;;;;;;;12.40;78.30;;;-151.14;100.00;62537.16;4376399;32;20200;-83
2022/10/11 05:02:41;;;;;;;;;;;12.40;77.80;;;-151.14;100.00;62537.16;4346602;32;19901;-83
2022/10/11 05:05:23;;;;;;;;;;;12.50;77.60;;;-151.14;100.00;62537.16;4375697;32;19908;-84
2022/10/11 05:08:07;;;;;;;;;;;12.50;77.10;;;-151.14;100.00;62537.16;4376312;32;19901;-83
2022/10/11 05:10:56;;;;;;;;;;;12.50;77.10;;;-151.14;100.00;62537.16;4346402;32;19901;-83
2022/10/11 05:13:38;;;;;;;;;;;12.50;77.20;;;-151.14;100.00;62537.16;4375748;32;19900;-83
2022/10/11 05:16:20;;;;;;;;;;;12.40;77.20;;;-151.14;100.00;62537.16;4376189;32;19901;-83
2022/10/11 05:19:01;;;;;;;;;;;12.40;77.30;;;-151.14;100.00;62537.16;4376389;32;19908;-82
2022/10/11 05:21:42;;;;;;;;;;;12.40;77.60;;;-151.14;100.00;62537.16;4376318;32;20112;-83
2022/10/11 05:24:24;;;;;;;;;;;12.40;77.50;;;-151.14;100.00;62537.16;4375796;32;20308;-83
2022/10/11 05:27:05;;;;;;;;;;;12.40;77.60;;;-151.14;100.00;62537.16;4376315;32;19901;-83
2022/10/11 05:29:47;;;;;;;;;;;12.40;77.60;;;-151.14;100.00;62537.16;4376175;32;19900;-83
2022/10/11 05:32:28;;;;;;;;;;;12.40;77.50;;;-151.14;100.00;62537.16;4376334;32;19908;-83
2022/10/11 05:35:10;;;;;;;;;;;12.40;77.20;;;-151.14;100.00;62537.16;4316580;32;19909;-84
2022/10/11 05:37:53;;;;;;;;;;;12.50;77.10;;;-151.14;100.00;62537.16;4317292;32;19909;-83
2022/10/11 05:40:34;;;;;;;;;;;12.50;76.90;;;-151.14;100.00;62537.16;4376149;32;19908;-83
2022/10/11 05:43:18;;;;;;;;;;;12.50;76.80;;;-151.14;100.00;62537.16;4375716;32;19908;-83
2022/10/11 05:46:00;;;;;;;;;;;12.50;76.90;;;-151.14;100.00;62537.16;4376366;32;19916;-84
2022/10/11 05:48:41;;;;;;;;;;;12.50;76.70;;;-151.14;100.00;62537.16;4346434;32;19901;-84
2022/10/11 05:51:23;;;;;;;;;;;12.50;77.00;;;-151.14;100.00;62537.16;4346561;32;19901;-83
2022/10/11 05:54:04;;;;;;;;;;;12.50;76.90;;;-151.14;100.00;62537.16;4375802;32;19901;-84
2022/10/11 05:56:45;;;;;;;;;;;12.50;76.50;;;-151.14;100.00;62537.16;4376313;32;19908;-83
2022/10/11 05:59:29;;;;;;;;;;;12.60;76.70;;;-151.14;100.00;62537.16;4317414;32;19908;-83
2022/10/11 06:02:12;;;;;;;;;;;12.50;76.70;;;-151.14;100.00;62537.16;4376461;32;19942;-84
2022/10/11 06:04:53;;;;;;;;;;;12.50;76.80;;;-151.14;100.00;62537.16;4346398;32;19901;-83
2022/10/11 06:07:35;;;;;;;;;;;12.50;77.00;;;-151.14;100.00;62537.16;4346597;32;19901;-83
2022/10/11 06:10:17;;;;;;;;;;;12.50;77.20;;;-151.14;100.00;62537.16;4346481;32;19901;-84
2022/10/11 06:13:02;;;;;;;;;;;12.50;77.20;;;-151.14;100.00;62537.16;4376240;32;19901;-83
2022/10/11 06:16:14;;;;;;;;;;;12.50;77.20;;;-151.14;100.00;62537.16;4259553;32;19902;-81
2022/10/11 06:19:12;;;;;;;;;;;12.40;77.10;;;-151.14;100.00;62537.16;4436956;32;19907;-83
2022/10/11 06:22:10;;;;;;;;;;;12.40;77.30;;;-151.14;100.00;62537.16;4347958;32;19901;-83
2022/10/11 06:25:11;;;;;;;;;;;12.40;77.70;;;-151.14;100.00;62537.16;4350169;32;19901;-84
2022/10/11 06:28:11;;;;;;;;;;;12.40;77.80;;;-151.14;100.00;62537.16;4370083;32;19908;-83
2022/10/11 06:31:06;;;;;;;;;;;12.40;78.00;;;-151.14;100.00;62537.16;4376824;32;19907;-83
2022/10/11 06:34:02;;;;;;;;;;;12.40;77.80;;;-151.14;100.00;62537.16;4347617;32;20115;-83
2022/10/11 06:36:59;;;;;;;;;;;12.40;78.50;;;-151.14;100.00;62537.16;4377573;32;19900;-83
2022/10/11 06:40:00;;;;;;;;;;;12.40;78.70;;;-151.14;100.00;62537.16;4376730;32;19900;-84
2022/10/11 06:43:03;;;;;;;;;;;12.40;78.90;;;-151.14;100.00;62537.16;4259622;32;19902;-84
2022/10/11 06:46:04;;;;;;;;;;;12.40;79.00;;;-151.14;100.00;62537.16;4376934;32;19901;-84
2022/10/11 06:49:08;;;;;;;;;;;12.30;79.00;;;-151.14;100.00;62537.16;4264401;32;19909;-83
2022/10/11 06:52:20;;;;;;;;;;;12.30;79.10;;;-151.14;100.00;62537.16;4231552;32;19903;-83
2022/10/11 06:55:25;;;;;;;;;;;12.30;79.20;;;-151.14;100.00;62537.16;4398801;32;20204;-81
2022/10/11 06:58:32;;;;;;;;;;;12.30;79.20;;;-151.14;100.00;62537.16;4379536;32;20229;-83
2022/10/11 07:01:27;;;;;;;;;;;12.40;79.20;;;-151.14;100.00;62537.16;4348253;32;19901;-83
2022/10/11 07:04:34;;;;;;;;;;;12.30;79.40;;;-151.14;100.00;62537.16;4386494;32;19900;-83
2022/10/11 07:07:29;;;;;;;;;;;12.30;79.30;;;-151.14;100.00;62537.16;4376769;32;19901;-84
2022/10/11 07:10:24;;;;;;;;;;;12.40;79.20;;;-151.14;100.00;62537.16;4377191;32;19909;-83
2022/10/11 07:13:18;;;;;;;;;;;12.40;79.20;;;-151.14;100.00;62537.16;4376277;32;19907;-83
2022/10/11 07:16:15;;;;;;;;;;;12.40;79.30;;;-151.14;100.00;62537.16;4436873;32;19907;-84
2022/10/11 07:19:14;;;;;;;;;;;12.40;79.10;;;-151.14;100.00;62537.16;4436815;32;20096;-84
2022/10/11 07:22:22;;;;;;;;;;;12.50;79.20;;;-151.14;100.00;62537.16;4231244;32;19903;-84
2022/10/11 07:25:20;;;;;;;;;;;12.50;79.10;;;-151.14;100.00;62537.16;4436433;32;20200;-84
2022/10/11 07:28:16;;;;;;;;;;;12.60;78.90;;;-151.14;100.00;62537.16;4376780;32;19900;-84
2022/10/11 07:31:17;;;;;;;;;;;12.70;78.90;;;-151.14;100.00;62537.16;4417752;32;19975;-83
2022/10/11 07:34:12;;;;;;;;;;;12.70;78.80;;;-151.14;100.00;62537.16;4376340;32;19901;-84
2022/10/11 07:37:10;;;;;;;;;;;12.80;78.60;;;-151.14;100.00;62537.16;4436992;32;19900;-84
2022/10/11 07:40:10;;;;;;;;;;;12.80;78.40;;;-151.14;100.00;62537.16;4376958;32;19900;-84
2022/10/11 07:43:05;;;;;;;;;;;12.90;78.30;;;-151.14;100.00;62537.16;4376125;32;19901;-84
2022/10/11 07:46:02;;;;;;;;;;;12.90;78.10;;;-151.14;100.00;62537.16;4376474;32;19901;-84
2022/10/11 07:49:07;;;;;;;;;;;13.00;78.00;;;-151.14;100.00;62537.16;4399258;32;20426;-84
2022/10/11 07:52:05;;;;;;;;;;;13.00;77.70;;;-151.14;100.00;62537.16;4346423;32;19902;-85
2022/10/11 07:54:59;;;;;;;;;;;13.10;77.70;;;-151.14;100.00;62537.16;4376571;32;20113;-84
2022/10/11 07:57:54;;;;;;;;;;;13.10;77.50;;;-151.14;100.00;62537.16;4377349;32;20109;-83
2022/10/11 08:00:53;;;;;;;;;;;13.10;77.40;;;-151.14;100.00;62537.16;4376907;32;19901;-84
2022/10/11 08:03:51;;;;;;;;;;;13.20;77.20;;;-151.14;100.00;62537.16;4376321;32;19901;-84
2022/10/11 08:06:51;;;;;;;;;;;13.20;77.20;;;-151.14;100.00;62537.16;4376970;32;19908;-84
2022/10/11 08:09:46;;;;;;;;;;;13.20;77.20;;;-151.14;100.00;62537.16;4348779;32;19908;-83
2022/10/11 08:12:43;;;;;;;;;;;13.20;77.10;;;-151.14;100.00;62537.16;4377363;32;19908;-83
2022/10/11 08:15:53;;;;;;;;;;;13.20;77.00;;;-151.14;100.00;62537.16;4259746;32;19909;-84
2022/10/11 08:18:53;;;;;;;;;;;13.30;77.00;;;-151.14;100.00;62537.16;4436947;32;19900;-84
2022/10/11 08:21:52;;;;;;;;;;;13.30;76.80;;;-151.14;100.00;62537.16;4410185;32;19900;-84
2022/10/11 08:24:51;;;;;;;;;;;13.30;76.70;;;-151.14;100.00;62537.16;4376358;32;19901;-84
2022/10/11 08:27:47;;;;;;;;;;;13.30;76.80;;;12.30;100.00;62537.16;4376724;32;20215;-84
2022/10/11 08:30:53;;;;;;;;;;;13.30;76.70;;;12.27;100.00;62537.16;4385626;32;19907;-83
2022/10/11 08:33:51;;;;;;;;;;;13.30;76.80;;;-151.14;100.00;62537.16;4436370;32;19939;-84
2022/10/11 08:36:55;;;;;;;;;;;13.20;76.70;;;-151.14;100.00;62537.16;4262685;32;20194;-84
2022/10/11 08:39:57;;;;;;;;;;;13.20;76.80;;;-151.14;100.00;62537.16;4376807;32;20108;-83
2022/10/11 08:42:59;;;;;;;;;;;13.20;77.00;;;-151.14;100.00;62537.16;4377508;32;19941;-83
2022/10/11 08:45:54;;;;;;;;;;;13.20;77.10;;;-151.14;100.00;62537.16;4377356;32;19901;-84
2022/10/11 08:48:49;;;;;;;;;;;13.10;77.20;;;-151.14;100.00;62537.16;4376822;32;19901;-84
2022/10/11 08:52:03;;;;;;;;;;;13.10;77.20;;;-151.14;100.00;62537.16;4352797;32;20121;-84
2022/10/11 08:55:04;;;;;;;;;;;13.10;77.40;;;-151.14;100.00;62537.16;4436577;32;19899;-84
2022/10/11 08:57:59;;;;;;;;;;;13.10;77.40;;;-151.14;100.00;62537.16;4376894;32;19901;-85
2022/10/11 09:00:56;;;;;;;;;;;13.00;77.40;;;-151.14;100.00;62537.16;4347196;32;19901;-84
2022/10/11 09:03:39;;;;;;;;;;;13.00;77.40;;;-151.14;100.00;62537.16;4346113;32;19909;-84
2022/10/11 09:06:39;;;;;;;;;;;13.00;77.60;;;-151.14;100.00;62537.16;4346617;32;19901;-84
2022/10/11 09:09:45;;;;;;;;;;;13.00;77.60;;;-151.14;100.00;62537.16;4376248;32;19900;-84
2022/10/11 09:12:32;;;;;;;;;;;13.00;77.70;;;-151.14;100.00;62537.16;4376327;32;19901;-84
2022/10/11 09:15:24;;;;;;;;;;;12.90;77.80;;;-151.14;100.00;62537.16;4316811;32;20086;-84
2022/10/11 09:18:30;;;;;;;;;;;12.90;77.80;;;-151.14;100.00;62537.16;4376358;32;19901;-85
2022/10/11 09:21:20;;;;;;;;;;;12.90;77.90;;;-151.14;100.00;62537.16;4376310;32;19901;-85
2022/10/11 09:24:44;;;;;;;;;;;12.90;77.90;;;-151.14;100.00;62537.16;4375880;32;19900;-84
2022/10/11 09:27:29;;;;;;;;;;;12.90;78.00;;;-151.14;100.00;62537.16;4346614;32;19901;-85
2022/10/11 09:30:15;;;;;;;;;;;12.90;78.00;;;-151.14;100.00;62537.16;4376304;32;19901;-85
2022/10/11 09:33:04;;;;;;;;;;;12.90;78.00;;;-151.14;100.00;62537.16;4346560;32;19909;-85
2022/10/11 09:35:48;;;;;;;;;;;12.90;77.90;;;-151.14;100.00;62537.16;4317206;32;20128;-84
2022/10/11 09:38:37;;;;;;;;;;;12.90;77.90;;;-151.14;100.00;62537.16;4376209;32;19909;-84
2022/10/11 09:41:13;;;;;;;;;;;12.90;77.80;;;-151.14;100.00;62537.16;5089180;28;34249;-84
2022/10/11 09:43:41;;;;;;;;;;;12.90;77.90;;;-151.14;100.00;62537.16;5106866;28;19920;-85
2022/10/11 09:46:16;;;;;;;;;;;12.90;77.80;;;-151.14;100.00;62537.16;5107181;28;19924;-85
2022/10/11 09:48:44;;;;;;;;;;;12.90;77.80;;;-151.14;100.00;62537.16;5107310;28;19919;-83
2022/10/11 09:51:14;;;;;;;;;;;13.00;77.70;;;-151.14;100.00;62537.16;5107176;28;19926;-83
2022/10/11 09:53:57;;;;;;;;;;;13.00;77.70;;;-151.14;100.00;62537.16;5089763;28;19919;-83
2022/10/11 09:56:26;;;;;;;;;;;13.00;77.70;;;-151.14;100.00;62537.16;5107070;28;19920;-83
2022/10/11 09:59:17;;;;;;;;;;;13.00;77.60;;;-151.14;100.00;62537.16;5107019;28;19920;-83
2022/10/11 10:01:45;;;;;;;;;;;13.00;77.60;;;-151.14;100.00;62537.16;5107014;28;19920;-83
2022/10/11 10:04:15;;;;;;;;;;;13.00;77.60;;;-151.14;100.00;62537.16;5106413;28;19919;-83
2022/10/11 10:06:43;;;;;;;;;;;13.00;77.60;;;-151.14;100.00;62537.16;5089753;28;19920;-82
2022/10/11 10:09:29;;;;;;;;;;;13.00;77.60;;;-151.14;100.00;62537.16;5107901;28;19926;-83
2022/10/11 10:11:57;;;;;;;;;;;13.00;77.50;;;-151.14;100.00;62537.16;5107102;28;19920;-83
2022/10/11 10:14:27;;;;;;;;;;;13.00;77.60;;;-151.14;100.00;62537.16;5107475;28;19942;-83
2022/10/11 10:17:00;;;;;;;;;;;13.00;77.50;;;-151.14;100.00;62537.16;5106697;28;19939;-83
2022/10/11 10:19:28;;;;;;;;;;;13.00;77.60;;;-151.14;100.00;62537.16;5106822;28;19920;-83
2022/10/11 10:21:56;;;;;;;;;;;13.00;77.50;;;-151.14;100.00;62537.16;5106657;28;19920;-83
2022/10/11 10:24:38;;;;;;;;;;;13.00;77.50;;;-151.14;100.00;62537.16;5106131;28;19920;-83
2022/10/11 10:27:08;;;;;;;;;;;13.00;77.50;;;-151.14;100.00;62537.16;5106825;28;19920;-83
2022/10/11 10:29:36;;;;;;;;;;;13.00;77.50;;;-151.14;100.00;62537.16;5106484;28;19920;-83
2022/10/11 10:32:10;;;;;;;;;;;13.00;77.40;;;-151.14;100.00;62537.16;5106580;28;19919;-83
2022/10/11 10:34:40;;;;;;;;;;;13.00;77.50;;;12.00;100.00;62537.16;5106085;28;19920;-83
2022/10/11 10:37:11;;;;;;;;;;;13.00;77.50;;;-151.14;100.00;62537.16;5106338;28;19928;-83
2022/10/11 10:39:42;;;;;;;;;;;13.00;77.50;;;-151.14;100.00;62537.16;5106593;28;19920;-83
2022/10/11 10:42:12;;;;;;;;;;;13.00;77.40;;;-151.14;100.00;62537.16;5106379;28;20208;-83
2022/10/11 10:44:40;;;;;;;;;;;13.00;77.40;;;-151.14;100.00;62537.16;5105720;28;19926;-83
2022/10/11 10:47:10;;;;;;;;;;;13.00;77.30;;;12.00;100.00;62537.16;5107559;28;19920;-83
2022/10/11 10:49:40;;;;;;;;;;;13.00;77.40;;;12.00;100.00;62537.16;5076992;28;19926;-83
2022/10/11 10:52:26;;;;;;;;;;;13.00;77.40;;;12.00;100.00;62537.16;5075859;28;19920;-83
2022/10/11 10:54:56;;;;;;;;;;;13.00;77.40;;;12.00;100.00;62537.16;5075330;28;19921;-83
2022/10/11 10:57:26;;;;;;;;;;;13.00;77.40;;;12.00;100.00;62537.16;5092681;28;20115;-83
2022/10/11 11:00:04;;;;;;;;;;;13.00;77.40;;;-151.14;100.00;62537.16;5075800;28;19920;-83
2022/10/11 11:02:36;;;;;;;;;;;13.00;77.50;;;-151.14;100.00;62537.16;5092569;28;19978;-83
2022/10/11 11:05:09;;;;;;;;;;;13.00;77.40;;;12.03;100.00;62537.16;5075238;28;20120;-83
2022/10/11 11:07:40;;;;;;;;;;;13.00;77.60;;;12.03;100.00;62537.16;5075741;28;19927;-83
2022/10/11 11:10:13;;;;;;;;;;;13.00;77.50;;;12.03;100.00;62537.16;5092408;28;19920;-83
2022/10/11 11:12:44;;;;;;;;;;;13.00;77.50;;;12.03;100.00;62537.16;5075723;28;19927;-83
2022/10/11 11:15:14;;;;;;;;;;;13.00;77.60;;;12.03;100.00;82775.31;5075089;28;19921;-83
2022/10/11 11:17:49;;;;;;;;;;;13.00;77.70;;;-151.14;100.00;62537.16;5075450;28;19922;-83
2022/10/11 11:20:24;;;;;;;;;;;13.00;77.60;;;-151.14;100.00;62537.16;5075466;28;19920;-83
2022/10/11 11:22:55;;;;;;;;;;;13.00;77.70;;;-151.14;100.00;62537.16;5092360;28;19926;-83
2022/10/11 11:25:31;;;;;;;;;;;13.00;77.80;;;11.95;100.00;82763.97;5074875;28;20122;-83
2022/10/11 11:28:09;;;;;;;;;;;12.90;77.80;;;11.93;100.00;62537.16;5093308;28;19927;-83
2022/10/11 11:30:41;;;;;;;;;;;13.00;77.90;;;11.93;100.00;62537.16;5075268;28;19920;-83
2022/10/11 11:33:12;;;;;;;;;;;12.90;78.00;;;11.93;100.00;62537.16;5075346;28;19920;-83
2022/10/11 11:35:42;;;;;;;;;;;12.90;77.90;;;11.93;100.00;62537.16;5075247;28;19920;-83
2022/10/11 11:38:13;;;;;;;;;;;13.00;77.90;;;11.93;100.00;62537.16;5092022;28;19924;-83
2022/10/11 11:40:43;;;;;;;;;;;13.00;77.90;;;11.93;100.00;82761.84;5075150;28;19926;-83
2022/10/11 11:43:15;;;;;;;;;;;12.90;77.90;;;11.96;100.00;62537.16;5075165;28;19920;-83
2022/10/11 11:45:46;;;;;;;;;;;12.90;77.90;;;11.96;100.00;62537.16;5075073;28;19927;-83
2022/10/11 11:48:16;;;;;;;;;;;13.00;77.90;;;11.96;100.00;96829.78;5091805;28;19926;-83
2022/10/11 11:50:46;;;;;;;;;;;12.90;78.00;;;11.96;100.00;82766.47;5091668;28;19973;-83
2022/10/11 11:53:15;;;;;;;;;;;12.90;78.00;;;11.95;100.00;62537.16;5074666;28;19927;-83
2022/10/11 11:55:48;;;;;;;;;;;12.90;78.00;;;11.95;100.00;62537.16;5074967;28;19920;-83
2022/10/11 11:58:23;;;;;;;;;;;12.90;78.00;;;11.95;100.00;62537.16;5108693;28;19920;-83
2022/10/11 12:00:54;;;;;;;;;;;12.90;78.00;;;11.95;100.00;96688.53;5073765;28;19927;-83
2022/10/11 12:03:25;;;;;;;;;;;12.90;78.10;;;-151.14;100.00;62537.16;5074331;28;19926;-83
2022/10/11 12:06:25;;;;;;;;;;;12.90;78.00;;;11.94;100.00;62537.16;5091746;28;20108;-83
2022/10/11 12:09:02;;;;;;;;;;;12.90;78.00;;;11.94;100.00;62537.16;5108712;28;19920;-83
2022/10/11 12:11:41;;;;;;;;;;;12.90;78.20;;;11.94;100.00;82763.25;5091426;28;19920;-83
2022/10/11 12:14:17;;;;;;;;;;;12.90;78.20;;;11.92;100.00;62537.16;5074173;28;19920;-83